createdAt,value
2023-02-03T00:04:48.593Z,100.00
2023-02-03T00:09:50.211Z,100.00
2023-02-03T00:14:51.668Z,100.00
2023-02-03T00:19:53.169Z,100.00
2023-02-03T00:24:54.638Z,100.00
2023-02-03T00:29:56.230Z,100.00
2023-02-03T00:34:57.725Z,100.00
2023-02-03T00:39:59.189Z,100.00
2023-02-03T00:45:00.673Z,100.00
2023-02-03T00:50:02.156Z,100.00
2023-02-03T00:55:04.452Z,100.00
2023-02-03T01:00:06.911Z,100.00
2023-02-03T01:05:08.542Z,100.00
2023-02-03T01:10:10.737Z,100.00
2023-02-03T01:15:12.204Z,100.00
2023-02-03T01:20:13.979Z,100.00
2023-02-03T01:25:15.644Z,100.00
2023-02-03T01:30:17.352Z,100.00
2023-02-03T01:35:18.814Z,100.00
2023-02-03T01:40:20.402Z,100.00
2023-02-03T01:45:21.925Z,100.00
2023-02-03T01:50:35.868Z,100.00
2023-02-03T01:55:48.405Z,100.00
2023-02-03T02:00:50.043Z,100.00
2023-02-03T02:06:02.653Z,100.00
2023-02-03T02:11:05.339Z,100.00
2023-02-03T02:16:22.795Z,100.00
2023-02-03T02:21:36.444Z,100.00
2023-02-03T02:26:59.311Z,100.00
2023-02-03T02:32:15.617Z,100.00
2023-02-03T02:37:30.925Z,100.00
2023-02-03T02:42:36.589Z,100.00
2023-02-03T02:47:38.765Z,100.00
2023-02-03T02:52:43.350Z,100.00
2023-02-03T02:57:46.823Z,100.00
2023-02-03T03:02:48.540Z,100.00
2023-02-03T03:07:59.591Z,100.00
2023-02-03T03:13:06.249Z,100.00
2023-02-03T03:18:25.173Z,100.00
2023-02-03T03:23:31.886Z,100.00
2023-02-03T03:28:42.226Z,100.00
2023-02-03T03:33:44.293Z,100.00
2023-02-03T03:38:55.403Z,100.00
2023-02-03T03:44:00.803Z,100.00
2023-02-03T03:49:05.198Z,100.00
2023-02-03T03:54:10.632Z,100.00
2023-02-03T03:59:16.132Z,100.00
2023-02-03T04:04:18.614Z,100.00
2023-02-03T04:09:20.318Z,100.00
2023-02-03T04:14:21.769Z,100.00
2023-02-03T04:19:23.233Z,100.00
2023-02-03T04:24:24.726Z,100.00
2023-02-03T04:29:26.131Z,100.00
2023-02-03T04:34:27.535Z,100.00
2023-02-03T04:39:28.980Z,100.00
2023-02-03T04:44:30.438Z,100.00
2023-02-03T04:49:31.884Z,100.00
2023-02-03T04:54:34.098Z,100.00
2023-02-03T04:59:35.546Z,100.00
2023-02-03T05:04:37.009Z,100.00
2023-02-03T05:09:38.423Z,100.00
2023-02-03T05:14:39.860Z,100.00
2023-02-03T05:19:41.331Z,100.00
2023-02-03T05:24:42.786Z,100.00
2023-02-03T05:29:44.200Z,100.00
2023-02-03T05:34:45.678Z,100.00
2023-02-03T05:39:47.110Z,100.00
2023-02-03T05:44:49.525Z,100.00
2023-02-03T05:49:51.027Z,100.00
2023-02-03T05:54:52.527Z,100.00
2023-02-03T05:59:53.986Z,100.00
2023-02-03T06:04:55.443Z,100.00
2023-02-03T06:09:57.005Z,100.00
2023-02-03T06:14:58.465Z,100.00
2023-02-03T06:19:59.944Z,100.00
2023-02-03T06:25:01.454Z,100.00
2023-02-03T06:30:03.455Z,100.00
2023-02-03T06:35:05.256Z,100.00
2023-02-03T06:40:07.569Z,100.00
2023-02-03T06:45:09.705Z,100.00
2023-02-03T06:50:14.165Z,100.00
2023-02-03T06:55:15.858Z,100.00
2023-02-03T07:00:19.372Z,100.00
2023-02-03T07:05:21.965Z,100.00
2023-02-03T07:10:23.501Z,100.00
2023-02-03T07:15:24.942Z,100.00
2023-02-03T07:20:29.030Z,100.00
2023-02-03T07:25:31.387Z,100.00
2023-02-03T07:30:32.878Z,100.00
2023-02-03T07:35:34.973Z,100.00
2023-02-03T07:40:36.460Z,100.00
2023-02-03T07:45:37.986Z,100.00
2023-02-03T07:50:40.020Z,100.00
2023-02-03T07:55:41.478Z,100.00
2023-02-03T08:00:43.238Z,100.00
2023-02-03T08:05:44.655Z,100.00
2023-02-03T08:10:46.070Z,100.00
2023-02-03T08:15:48.406Z,100.00
2023-02-03T08:20:49.867Z,98.56
2023-02-03T16:49:16.488Z,89.26
2023-02-03T16:54:18.223Z,88.02
2023-02-03T16:59:19.747Z,87.50
2023-02-03T17:04:21.260Z,86.96
2023-02-03T17:09:24.983Z,86.29
2023-02-03T17:14:27.092Z,85.86
2023-02-03T17:19:28.606Z,85.54
2023-02-03T17:24:30.078Z,86.36
2023-02-03T17:29:31.750Z,86.36
2023-02-03T17:34:34.800Z,87.72
2023-02-03T17:55:37.593Z,87.17
2023-02-03T18:00:39.006Z,86.82
2023-02-03T18:05:49.838Z,86.68
2023-02-03T18:10:51.280Z,86.61
2023-02-03T18:15:56.086Z,86.77
2023-02-03T18:20:57.573Z,86.97
2023-02-03T18:25:59.586Z,87.14
2023-02-03T18:31:05.424Z,87.18
2023-02-03T18:36:07.727Z,87.45
2023-02-03T18:41:14.312Z,86.89
2023-02-03T18:46:24.070Z,86.99
2023-02-03T18:51:26.582Z,87.21
2023-02-03T18:56:35.101Z,87.78
2023-02-03T19:01:38.910Z,88.69
2023-02-03T19:06:45.522Z,89.54
2023-02-03T19:11:47.075Z,89.12
2023-02-03T19:16:50.437Z,87.56
2023-02-03T19:21:52.207Z,84.74
2023-02-03T19:26:54.218Z,82.58
2023-02-03T19:31:55.781Z,80.69
2023-02-03T19:36:59.125Z,79.95
2023-02-03T19:42:01.470Z,79.23
2023-02-03T19:47:03.714Z,80.54
2023-02-03T19:52:05.422Z,77.15
2023-02-03T19:57:06.931Z,73.84
2023-02-03T20:02:14.581Z,74.03
2023-02-03T20:07:16.758Z,74.71
2023-02-03T20:12:18.223Z,75.54
2023-02-03T20:17:19.718Z,76.41
2023-02-03T20:22:21.486Z,77.39
2023-02-03T20:27:23.017Z,78.95
2023-02-03T20:32:24.590Z,80.04
2023-02-03T20:37:26.105Z,79.77
2023-02-03T20:42:27.602Z,80.12
2023-02-03T20:47:33.915Z,79.08
2023-02-03T20:52:35.391Z,77.97
2023-02-03T20:57:36.929Z,78.42
2023-02-03T21:02:57.392Z,79.62
2023-02-03T21:07:59.323Z,80.67
2023-02-03T21:13:01.547Z,81.67
2023-02-03T21:18:03.207Z,83.06
2023-02-03T21:23:11.290Z,84.48
2023-02-03T21:28:26.778Z,85.27
2023-02-03T21:33:36.768Z,85.42
2023-02-03T21:38:38.246Z,84.45
2023-02-03T21:43:39.736Z,83.47
2023-02-03T21:48:55.011Z,83.47
2023-02-03T21:53:59.208Z,83.20
2023-02-03T21:59:01.732Z,84.16
2023-02-03T22:04:04.052Z,83.46
2023-02-03T22:09:05.510Z,84.15
2023-02-03T22:14:07.031Z,84.42
2023-02-03T22:19:08.871Z,84.86
2023-02-03T22:24:10.460Z,83.94
2023-02-03T22:29:11.959Z,84.81
2023-02-03T22:34:15.396Z,85.16
2023-02-03T22:39:16.851Z,85.18
2023-02-03T22:44:18.863Z,85.68
2023-02-03T22:49:20.323Z,86.42
2023-02-03T22:54:21.807Z,86.04
2023-02-03T22:59:23.392Z,86.11
2023-02-03T23:04:24.892Z,87.24
2023-02-03T23:09:26.383Z,88.41
2023-02-03T23:14:28.203Z,89.01
2023-02-03T23:19:30.128Z,89.27
2023-02-03T23:24:31.634Z,89.33
2023-02-03T23:29:33.255Z,89.24
2023-02-03T23:34:53.199Z,90.32
2023-02-03T23:39:54.706Z,90.08
2023-02-03T23:44:57.044Z,90.97
2023-02-03T23:49:58.490Z,92.32
2023-02-03T23:54:59.947Z,93.70
